Time;durP1;ratioP1;P1;durP2;ratioP2;P2;SDS_P1;SDS_P2;PMS_P1;PMS_P2;Temp;Humidity;BMP_temperature;BMP_pressure;BME280_temperature;BME280_humidity;BME280_pressure;Samples;Min_cycle;Max_cycle;Signal;HPM_P1;HPM_P2
2021/06/26 00:01:18;;;;;;;;;;;;;;;27.30;41.33;99941.25;4476817;31;31781;-91
2021/06/26 00:03:48;;;;;;;;;;;;;;;27.57;40.48;99936.84;4489869;31;33041;-91
2021/06/26 00:06:16;;;;;;;;;;;;;;;28.48;38.65;99941.06;4464048;31;33123;-91
2021/06/26 00:08:43;;;;;;;;;;;;;;;27.61;40.52;99946.25;4477130;31;32788;-92
2021/06/26 00:11:11;;;;;;;;;;;;;;;28.83;37.79;99944.62;4463781;31;32391;-90
2021/06/26 00:13:39;;;;;;;;;;;;;;;28.64;38.28;99961.78;4489577;31;33774;-92
2021/06/26 00:16:07;;;;;;;;;;;;;;;28.80;37.87;99961.03;4476948;31;33471;-92
2021/06/26 00:18:38;;;;;;;;;;;;;;;27.36;41.17;99963.03;4490265;31;33254;-92
2021/06/26 00:21:06;;;;;;;;;;;;;;;26.97;42.23;99958.75;4476587;31;33100;-91
2021/06/26 00:23:33;;;;;;;;;;;;;;;28.50;38.74;99959.66;4479312;31;34040;-91
2021/06/26 00:26:17;;;;;;;;;;;;;;;28.71;38.22;99955.81;4466571;31;33883;-91
2021/06/26 00:28:45;;;;;;;;;;;;;;;28.88;37.71;99956.69;4477001;31;32948;-91
2021/06/26 00:31:13;;;;;;;;;;;;;;;29.65;36.17;99959.28;4476135;31;31826;-91
2021/06/26 00:33:41;;;;;;;;;;;;;;;28.80;37.85;99963.72;4477018;31;32840;-91
2021/06/26 00:36:09;;;;;;;;;;;;;;;28.17;39.33;99962.13;4489379;31;33666;-91
2021/06/26 00:38:37;;;;;;;;;;;;;;;27.86;40.04;99965.22;4476681;31;32974;-90
2021/06/26 00:41:05;;;;;;;;;;;;;;;29.28;36.93;99971.31;4502341;31;31891;-91
2021/06/26 00:43:33;;;;;;;;;;;;;;;29.72;36.01;99970.22;4489780;31;33919;-92
2021/06/26 00:46:00;;;;;;;;;;;;;;;29.83;35.74;99978.75;4489345;31;33242;-91
2021/06/26 00:48:29;;;;;;;;;;;;;;;29.58;36.15;99988.63;4476879;31;32985;-91
2021/06/26 00:50:57;;;;;;;;;;;;;;;29.30;36.90;99980.88;4476520;31;32126;-91
2021/06/26 00:53:25;;;;;;;;;;;;;;;27.32;41.25;99992.75;4476575;31;32499;-91
2021/06/26 00:55:53;;;;;;;;;;;;;;;27.21;41.63;99982.25;4476560;31;33681;-92
2021/06/26 00:58:22;;;;;;;;;;;;;;;27.94;40.04;99977.84;4489553;31;33806;-92
2021/06/26 01:00:50;;;;;;;;;;;;;;;28.64;38.48;99980.56;4476746;31;31637;-91
2021/06/26 01:03:20;;;;;;;;;;;;;;;28.25;39.33;99978.25;4476620;31;34252;-91
2021/06/26 01:05:48;;;;;;;;;;;;;;;28.85;38.00;99987.34;4503534;31;34412;-92
2021/06/26 01:08:16;;;;;;;;;;;;;;;29.35;36.90;99983.03;4491675;31;32934;-92
2021/06/26 01:10:45;;;;;;;;;;;;;;;29.79;35.98;99973.88;4489860;31;33350;-91
2021/06/26 01:13:13;;;;;;;;;;;;;;;29.54;36.51;99981.91;4476024;31;33382;-91
2021/06/26 01:15:41;;;;;;;;;;;;;;;29.91;35.83;99971.75;4489511;31;33532;-92
2021/06/26 01:18:09;;;;;;;;;;;;;;;29.69;36.25;99973.19;4476335;31;33068;-92
2021/06/26 01:20:36;;;;;;;;;;;;;;;29.51;36.61;99976.88;4476235;31;33221;-92
2021/06/26 01:23:04;;;;;;;;;;;;;;;30.37;34.90;99963.13;4471326;32;32767;-92
2021/06/26 01:25:33;;;;;;;;;;;;;;;29.68;36.29;99974.19;4461125;31;33706;-91
2021/06/26 01:28:01;;;;;;;;;;;;;;;29.90;35.85;99976.28;4462873;31;32850;-91
2021/06/26 01:30:32;;;;;;;;;;;;;;;29.64;36.37;99976.41;4463361;31;32005;-91
2021/06/26 01:33:03;;;;;;;;;;;;;;;30.23;35.23;99980.78;4463429;31;32865;-92
2021/06/26 01:35:30;;;;;;;;;;;;;;;29.23;37.24;99981.66;4475948;31;32841;-92
2021/06/26 01:37:58;;;;;;;;;;;;;;;29.60;36.51;99983.94;4476063;31;34400;-91
2021/06/26 01:40:27;;;;;;;;;;;;;;;28.87;38.08;99980.00;4463307;31;32370;-92
2021/06/26 01:42:57;;;;;;;;;;;;;;;27.91;40.33;99984.34;4463385;31;33824;-91
2021/06/26 01:45:27;;;;;;;;;;;;;;;27.56;41.22;99988.72;4476389;31;32999;-91
2021/06/26 01:47:56;;;;;;;;;;;;;;;28.52;39.14;99980.94;4476036;31;34034;-92
2021/06/26 01:50:25;;;;;;;;;;;;;;;27.52;41.41;99991.81;4476262;31;33454;-92
2021/06/26 01:52:54;;;;;;;;;;;;;;;27.94;40.48;100000.09;4489557;31;34144;-93
2021/06/26 01:55:21;;;;;;;;;;;;;;;28.13;40.10;100000.94;4463032;31;34058;-91
2021/06/26 01:57:49;;;;;;;;;;;;;;;26.49;44.07;100003.34;4463042;31;33390;-91
2021/06/26 02:00:19;;;;;;;;;;;;;;;26.49;44.25;100011.34;4463252;31;32231;-92
2021/06/26 02:02:48;;;;;;;;;;;;;;;27.76;41.05;100007.28;4450318;31;32682;-92
2021/06/26 02:05:17;;;;;;;;;;;;;;;28.13;40.27;100008.97;4489053;31;35135;-92
2021/06/26 02:07:46;;;;;;;;;;;;;;;27.92;40.62;100002.09;4475969;31;33335;-91
2021/06/26 02:10:14;;;;;;;;;;;;;;;27.94;40.67;100004.62;4476359;31;33207;-92
2021/06/26 02:12:42;;;;;;;;;;;;;;;28.35;39.81;100012.12;4463059;31;33474;-92
2021/06/26 02:15:10;;;;;;;;;;;;;;;27.94;40.85;100010.78;4450178;31;32940;-92
2021/06/26 02:17:38;;;;;;;;;;;;;;;28.35;39.97;100022.84;4476164;31;34680;-91
2021/06/26 02:20:06;;;;;;;;;;;;;;;26.49;44.62;100012.19;4462811;31;32182;-91
2021/06/26 02:22:35;;;;;;;;;;;;;;;26.54;44.66;100016.25;4475688;31;32846;-91
2021/06/26 02:25:05;;;;;;;;;;;;;;;26.42;45.14;100012.91;4462778;31;34286;-92
2021/06/26 02:27:34;;;;;;;;;;;;;;;27.02;43.54;100012.63;4450229;31;32812;-92
2021/06/26 02:30:02;;;;;;;;;;;;;;;27.59;42.10;100014.28;4463138;31;32017;-92
2021/06/26 02:32:31;;;;;;;;;;;;;;;27.21;43.13;100017.03;4476109;31;33818;-91
2021/06/26 02:34:58;;;;;;;;;;;;;;;26.44;45.00;100029.66;4462831;31;33282;-90
2021/06/26 02:37:26;;;;;;;;;;;;;;;26.10;46.09;100030.09;4476083;31;33953;-93
2021/06/26 02:39:53;;;;;;;;;;;;;;;26.99;43.91;100035.16;4462865;31;32924;-91
2021/06/26 02:42:24;;;;;;;;;;;;;;;27.19;43.38;100043.09;4476574;31;32835;-91
2021/06/26 02:44:51;;;;;;;;;;;;;;;26.61;44.57;100044.09;4463013;31;32816;-91
2021/06/26 02:47:21;;;;;;;;;;;;;;;26.47;44.89;100037.37;4478049;31;34550;-91
2021/06/26 02:49:50;;;;;;;;;;;;;;;25.09;48.61;100051.44;4452221;31;32475;-91
2021/06/26 02:52:17;;;;;;;;;;;;;;;25.10;48.91;100045.16;4463225;31;33269;-92
2021/06/26 02:54:45;;;;;;;;;;;;;;;26.83;44.22;100037.59;4488909;31;33744;-89
2021/06/26 02:57:13;;;;;;;;;;;;;;;26.52;44.88;100040.44;4462922;31;32351;-91
2021/06/26 02:59:41;;;;;;;;;;;;;;;26.64;44.62;100036.63;4488576;31;32857;-91
2021/06/26 03:02:08;;;;;;;;;;;;;;;27.34;42.85;100036.25;4488495;31;33729;-91
2021/06/26 03:04:36;;;;;;;;;;;;;;;27.46;42.42;100038.75;4462457;31;33191;-91
2021/06/26 03:07:04;;;;;;;;;;;;;;;27.39;42.55;100032.31;4475616;31;33208;-91
2021/06/26 03:09:32;;;;;;;;;;;;;;;27.69;41.87;100027.63;4462384;31;33115;-91
2021/06/26 03:12:00;;;;;;;;;;;;;;;27.84;41.42;100036.78;4488462;31;33529;-91
2021/06/26 03:14:28;;;;;;;;;;;;;;;27.52;42.22;100040.81;4475698;31;34053;-91
2021/06/26 03:16:58;;;;;;;;;;;;;;;27.14;42.92;100034.66;4476179;31;32774;-91
2021/06/26 03:19:26;;;;;;;;;;;;;;;27.58;42.00;100036.72;4501462;31;34582;-91
2021/06/26 03:21:53;;;;;;;;;;;;;;;28.04;40.89;100042.91;4488149;31;33053;-91
2021/06/26 03:24:21;;;;;;;;;;;;;;;27.54;42.07;100043.38;4468515;31;32728;-92
2021/06/26 03:26:49;;;;;;;;;;;;;;;27.41;42.18;100041.88;4475231;31;33078;-90
2021/06/26 03:29:17;;;;;;;;;;;;;;;27.88;41.17;100042.69;4488185;31;33110;-92
2021/06/26 03:31:44;;;;;;;;;;;;;;;27.43;42.07;100042.56;4487535;31;34734;-93
2021/06/26 03:34:13;;;;;;;;;;;;;;;27.73;41.44;100035.19;4462520;31;32846;-92
2021/06/26 03:36:42;;;;;;;;;;;;;;;28.32;39.96;100026.69;4487654;31;34404;-92
2021/06/26 03:39:10;;;;;;;;;;;;;;;28.66;39.16;100032.16;4487911;31;33156;-92
2021/06/26 03:41:39;;;;;;;;;;;;;;;28.35;39.85;100028.22;4475165;31;32889;-92
2021/06/26 03:44:06;;;;;;;;;;;;;;;28.82;38.83;100031.41;4474990;31;33191;-92
2021/06/26 03:46:36;;;;;;;;;;;;;;;28.92;38.68;100036.66;4487760;31;34076;-92
2021/06/26 03:49:04;;;;;;;;;;;;;;;28.39;39.79;100034.97;4475350;31;32785;-91
2021/06/26 03:51:32;;;;;;;;;;;;;;;28.82;38.76;100038.62;4474602;31;32821;-91
2021/06/26 03:53:59;;;;;;;;;;;;;;;28.98;38.37;100037.88;4474247;31;33193;-91
2021/06/26 03:56:27;;;;;;;;;;;;;;;28.55;39.40;100039.59;4474958;31;32950;-91
2021/06/26 03:58:55;;;;;;;;;;;;;;;28.11;40.30;100049.31;4506417;31;32302;-91
2021/06/26 04:01:23;;;;;;;;;;;;;;;28.31;39.84;100041.94;4492964;31;33915;-91
2021/06/26 04:03:51;;;;;;;;;;;;;;;28.53;39.41;100037.06;4492176;31;35470;-92
2021/06/26 04:06:20;;;;;;;;;;;;;;;28.88;38.59;100040.69;4488154;31;33734;-91
2021/06/26 04:08:47;;;;;;;;;;;;;;;28.43;39.46;100039.03;4487405;31;33159;-92
2021/06/26 04:11:15;;;;;;;;;;;;;;;28.95;38.37;100039.03;4488088;31;34412;-92
2021/06/26 04:13:43;;;;;;;;;;;;;;;28.96;38.27;100039.88;4475512;31;33098;-92
2021/06/26 04:16:11;;;;;;;;;;;;;;;28.48;39.40;100034.88;4488692;31;34288;-92
2021/06/26 04:18:40;;;;;;;;;;;;;;;29.30;37.67;100039.91;4476424;31;31845;-92
2021/06/26 04:21:07;;;;;;;;;;;;;;;27.98;40.62;100038.13;4477154;31;33779;-91
2021/06/26 04:23:35;;;;;;;;;;;;;;;28.63;39.16;100035.12;4466560;31;32855;-92
2021/06/26 04:26:03;;;;;;;;;;;;;;;28.81;38.76;100034.25;4477481;31;34218;-93
2021/06/26 04:28:31;;;;;;;;;;;;;;;28.51;39.32;100036.38;4476713;31;32306;-91
2021/06/26 04:31:02;;;;;;;;;;;;;;;28.20;39.94;100036.84;4475003;31;32809;-91
2021/06/26 04:33:31;;;;;;;;;;;;;;;28.64;38.88;100038.66;4487244;31;33059;-91
2021/06/26 04:35:58;;;;;;;;;;;;;;;28.83;38.36;100026.91;4474356;31;32923;-92
2021/06/26 04:38:26;;;;;;;;;;;;;;;29.12;37.75;100025.72;4486826;31;33482;-91
2021/06/26 04:40:56;;;;;;;;;;;;;;;28.53;39.15;100036.22;4474852;31;32766;-92
2021/06/26 04:43:24;;;;;;;;;;;;;;;29.10;37.92;100027.69;4474171;31;34206;-92
2021/06/26 04:45:51;;;;;;;;;;;;;;;28.94;38.25;100029.28;4475212;31;32962;-92
2021/06/26 04:48:20;;;;;;;;;;;;;;;29.30;37.59;100031.84;4474488;31;32933;-92
2021/06/26 04:50:48;;;;;;;;;;;;;;;29.29;37.54;100030.16;4487010;31;33860;-92
2021/06/26 04:53:16;;;;;;;;;;;;;;;28.63;39.02;100037.81;4474129;31;32996;-92
2021/06/26 04:55:51;;;;;;;;;;;;;;;29.37;37.32;100029.34;4474013;31;32836;-92
2021/06/26 04:58:23;;;;;;;;;;;;;;;28.87;38.53;100039.00;4475063;31;33372;-92
2021/06/26 05:00:51;;;;;;;;;;;;;;;28.26;39.86;100030.84;4486913;31;34241;-92
2021/06/26 05:03:19;;;;;;;;;;;;;;;29.41;37.34;100029.84;4474304;31;33356;-92
2021/06/26 05:05:47;;;;;;;;;;;;;;;29.61;36.89;100028.56;4474258;31;33135;-91
2021/06/26 05:08:15;;;;;;;;;;;;;;;29.68;36.59;100035.94;4473914;31;33032;-91
2021/06/26 05:10:43;;;;;;;;;;;;;;;30.18;35.58;100026.97;4487014;31;34663;-92
2021/06/26 05:13:10;;;;;;;;;;;;;;;29.71;36.12;100032.94;4474019;31;32735;-91
2021/06/26 05:15:39;;;;;;;;;;;;;;;29.45;36.97;100033.87;4473975;31;33498;-91
2021/06/26 05:18:07;;;;;;;;;;;;;;;29.65;36.59;100037.97;4473893;31;33447;-91
2021/06/26 05:20:34;;;;;;;;;;;;;;;29.82;36.34;100038.00;4487169;31;32974;-94
2021/06/26 05:23:29;;;;;;;;;;;;;;;30.06;35.89;100034.53;4470024;32;34274;-92
2021/06/26 05:25:57;;;;;;;;;;;;;;;30.08;35.83;100027.13;4485003;31;34272;-93
2021/06/26 05:28:25;;;;;;;;;;;;;;;30.52;34.93;100017.91;4473887;31;33072;-91
2021/06/26 05:30:52;;;;;;;;;;;;;;;30.10;35.69;100026.97;4487283;31;34070;-91
2021/06/26 05:33:20;;;;;;;;;;;;;;;30.08;35.61;100016.37;4486625;31;33707;-92
2021/06/26 05:35:50;;;;;;;;;;;;;;;30.41;35.17;100024.44;4473686;31;33737;-92
2021/06/26 05:38:17;;;;;;;;;;;;;;;30.69;34.30;100021.41;4487273;31;32848;-92
2021/06/26 05:40:45;;;;;;;;;;;;;;;30.49;34.67;100026.31;4486636;31;32920;-92
2021/06/26 05:43:13;;;;;;;;;;;;;;;30.62;34.26;100028.44;4473796;31;33810;-92
2021/06/26 05:45:40;;;;;;;;;;;;;;;30.43;34.67;100032.31;4486326;31;33512;-92
2021/06/26 05:48:08;;;;;;;;;;;;;;;30.53;34.61;100030.34;4473488;31;32453;-91
2021/06/26 05:50:36;;;;;;;;;;;;;;;30.38;34.82;100045.44;4473856;31;33829;-90
2021/06/26 05:53:03;;;;;;;;;;;;;;;30.38;35.16;100046.28;4473177;31;33137;-92
2021/06/26 05:55:31;;;;;;;;;;;;;;;30.51;35.01;100045.78;4473755;31;34176;-92
2021/06/26 05:58:01;;;;;;;;;;;;;;;30.73;34.62;100051.47;4502742;31;33234;-91
2021/06/26 06:00:33;;;;;;;;;;;;;;;30.44;35.12;100063.59;4489562;31;33665;-92
2021/06/26 06:03:02;;;;;;;;;;;;;;;30.45;35.12;100060.75;4490782;31;34359;-91
2021/06/26 06:05:30;;;;;;;;;;;;;;;30.81;34.14;100062.22;4477178;31;33210;-91
2021/06/26 06:07:58;;;;;;;;;;;;;;;30.96;33.95;100056.94;4490324;31;32204;-92
2021/06/26 06:10:27;;;;;;;;;;;;;;;31.40;33.24;100064.53;4488031;31;33799;-91
2021/06/26 06:12:56;;;;;;;;;;;;;;;30.97;34.04;100064.00;4487918;31;34803;-93
2021/06/26 06:15:24;;;;;;;;;;;;;;;31.18;33.43;100070.69;4474422;31;32796;-92
2021/06/26 06:17:52;;;;;;;;;;;;;;;30.15;35.35;100079.22;4461408;31;32612;-91
2021/06/26 06:20:19;;;;;;;;;;;;;;;31.27;33.05;100083.09;4473429;31;33047;-92
2021/06/26 06:22:47;;;;;;;;;;;;;;;31.27;33.20;100078.56;4471905;31;33007;-91
2021/06/26 06:25:15;;;;;;;;;;;;;;;31.51;32.63;100075.94;4469286;31;34502;-91
2021/06/26 06:27:43;;;;;;;;;;;;;;;31.69;31.92;100081.09;4460775;31;32379;-92
2021/06/26 06:30:10;;;;;;;;;;;;;;;31.17;33.12;100085.19;4473638;31;34030;-90
2021/06/26 06:32:39;;;;;;;;;;;;;;;31.40;32.27;100079.84;4474154;31;33988;-91
2021/06/26 06:35:07;;;;;;;;;;;;;;;31.72;31.60;100083.44;4460145;31;32955;-91
2021/06/26 06:37:35;;;;;;;;;;;;;;;31.20;32.57;100088.34;4486459;31;33915;-91
2021/06/26 06:40:04;;;;;;;;;;;;;;;30.35;33.81;100091.47;4473185;31;32983;-92
2021/06/26 06:42:32;;;;;;;;;;;;;;;31.38;31.76;100085.44;4473555;31;34450;-91
2021/06/26 06:44:59;;;;;;;;;;;;;;;31.93;31.15;100086.31;4473528;31;32818;-90
2021/06/26 06:47:27;;;;;;;;;;;;;;;31.46;31.94;100089.94;4460496;31;32565;-91
2021/06/26 06:49:54;;;;;;;;;;;;;;;30.29;33.42;100090.28;4460492;31;32943;-90
2021/06/26 06:52:22;;;;;;;;;;;;;;;31.01;32.50;100094.09;4486601;31;33709;-91
2021/06/26 06:54:49;;;;;;;;;;;;;;;31.42;31.88;100089.44;4460045;31;34057;-90
2021/06/26 06:57:23;;;;;;;;;;;;;;;31.19;32.31;100092.03;4460230;31;33302;-90
2021/06/26 06:59:52;;;;;;;;;;;;;;;30.11;34.25;100093.94;4473808;31;34041;-89
2021/06/26 07:02:20;;;;;;;;;;;;;;;31.02;32.62;100090.38;4473060;31;34013;-90
2021/06/26 07:04:48;;;;;;;;;;;;;;;31.48;31.76;100094.13;4473194;31;33694;-89
2021/06/26 07:07:16;;;;;;;;;;;;;;;30.62;33.29;100092.97;4459440;31;32245;-90
2021/06/26 07:09:44;;;;;;;;;;;;;;;31.18;31.97;100106.53;4472356;31;32991;-90
2021/06/26 07:12:11;;;;;;;;;;;;;;;31.23;32.32;100112.25;4471999;31;32980;-90
2021/06/26 07:14:39;;;;;;;;;;;;;;;32.00;31.41;100107.16;4472609;31;33075;-90
2021/06/26 07:17:06;;;;;;;;;;;;;;;31.64;32.44;100109.41;4473211;31;33016;-91
2021/06/26 07:19:34;;;;;;;;;;;;;;;31.46;33.03;100106.91;4473368;31;33798;-91
2021/06/26 07:22:03;;;;;;;;;;;;;;;31.56;32.53;100111.25;4460253;31;33852;-90
2021/06/26 07:24:31;;;;;;;;;;;;;;;31.91;31.60;100109.06;4449192;32;852014;-90
2021/06/26 07:26:58;;;;;;;;;;;;;;;31.45;32.82;100107.94;4469448;31;33219;-89
2021/06/26 07:29:27;;;;;;;;;;;;;;;31.75;32.29;100107.31;4473077;31;34054;-89
2021/06/26 07:31:54;;;;;;;;;;;;;;;32.07;31.77;100102.72;4472879;31;33302;-90
2021/06/26 07:34:22;;;;;;;;;;;;;;;32.38;31.20;100102.69;4472859;31;32863;-91
2021/06/26 07:36:50;;;;;;;;;;;;;;;32.09;31.87;100095.31;4446952;31;33294;-91
2021/06/26 07:39:17;;;;;;;;;;;;;;;31.71;31.71;100104.16;4473786;31;33573;-90
2021/06/26 07:41:44;;;;;;;;;;;;;;;31.56;32.07;100101.31;4460566;31;33652;-90
2021/06/26 07:44:12;;;;;;;;;;;;;;;31.84;31.55;100094.63;4461037;31;32867;-90
2021/06/26 07:46:39;;;;;;;;;;;;;;;31.96;31.46;100091.37;4472914;31;33423;-91
2021/06/26 07:49:09;;;;;;;;;;;;;;;32.58;30.23;100096.81;4485504;31;34848;-90
2021/06/26 07:51:37;;;;;;;;;;;;;;;32.86;29.82;100096.22;4459921;31;34110;-90
2021/06/26 07:54:04;;;;;;;;;;;;;;;32.52;30.65;100090.25;4459624;31;33704;-90
2021/06/26 07:56:31;;;;;;;;;;;;;;;32.57;30.54;100101.34;4472173;31;31619;-91
2021/06/26 07:59:02;;;;;;;;;;;;;;;32.85;29.57;100100.75;4485305;31;34341;-91
2021/06/26 08:01:30;;;;;;;;;;;;;;;33.20;28.32;100101.06;4472743;31;34919;-91
2021/06/26 08:03:58;;;;;;;;;;;;;;;32.44;29.34;100109.22;4485181;31;33860;-90
2021/06/26 08:06:25;;;;;;;;;;;;;;;32.73;29.36;100103.06;4459343;31;32997;-89
2021/06/26 08:08:52;;;;;;;;;;;;;;;32.99;28.65;100095.56;4471593;31;32983;-91
2021/06/26 08:11:20;;;;;;;;;;;;;;;32.26;29.75;100086.09;4472040;31;33961;-91
2021/06/26 08:13:48;;;;;;;;;;;;;;;33.53;27.99;100094.44;4471805;31;32745;-90
2021/06/26 08:16:16;;;;;;;;;;;;;;;33.88;27.46;100098.19;4472014;31;32734;-90
2021/06/26 08:18:44;;;;;;;;;;;;;;;33.66;27.81;100096.47;4460218;31;33441;-91
2021/06/26 08:21:11;;;;;;;;;;;;;;;33.02;29.09;100095.22;4461044;31;32959;-91
2021/06/26 08:23:39;;;;;;;;;;;;;;;33.40;28.47;100100.50;4460610;31;33088;-91
2021/06/26 08:26:07;;;;;;;;;;;;;;;34.05;27.38;100089.84;4461027;31;32274;-91
2021/06/26 08:28:34;;;;;;;;;;;;;;;34.17;26.80;100084.75;4460982;31;33819;-91
2021/06/26 08:31:02;;;;;;;;;;;;;;;34.86;25.99;100092.19;4473899;31;33954;-90
2021/06/26 08:33:29;;;;;;;;;;;;;;;34.83;25.79;100081.78;4460959;31;34048;-90
2021/06/26 08:35:57;;;;;;;;;;;;;;;34.75;25.90;100087.31;4454598;31;32271;-89
2021/06/26 08:38:24;;;;;;;;;;;;;;;34.72;25.94;100093.97;4470998;32;32943;-91
2021/06/26 08:40:53;;;;;;;;;;;;;;;35.26;24.93;100084.31;4473548;31;34009;-91
2021/06/26 08:43:21;;;;;;;;;;;;;;;35.05;25.77;100084.41;4486872;31;34444;-90
2021/06/26 08:45:49;;;;;;;;;;;;;;;35.16;25.73;100083.84;4460472;31;32162;-91
2021/06/26 08:48:16;;;;;;;;;;;;;;;33.58;27.85;100092.84;4474119;31;34044;-91
2021/06/26 08:50:44;;;;;;;;;;;;;;;34.51;26.35;100094.03;4473665;31;34076;-91
2021/06/26 08:53:12;;;;;;;;;;;;;;;34.94;25.58;100083.94;4473755;31;33791;-91
2021/06/26 08:55:40;;;;;;;;;;;;;;;35.27;24.97;100083.25;4460731;31;33304;-91
2021/06/26 08:58:07;;;;;;;;;;;;;;;34.54;26.60;100085.50;4473848;31;33959;-90
2021/06/26 09:00:34;;;;;;;;;;;;;;;35.03;25.46;100081.06;4461044;31;34064;-90
2021/06/26 09:03:12;;;;;;;;;;;;;;;34.82;25.36;100079.25;4460865;31;34121;-90
2021/06/26 09:05:41;;;;;;;;;;;;;;;35.53;23.45;100080.87;4473752;31;31937;-91
2021/06/26 09:08:15;;;;;;;;;;;;;;;34.67;24.67;100079.38;4473964;31;33610;-91
2021/06/26 09:10:44;;;;;;;;;;;;;;;35.69;23.40;100075.13;4460417;31;34149;-91
2021/06/26 09:13:17;;;;;;;;;;;;;;;34.97;23.66;100076.44;4474049;31;34681;-91
2021/06/26 09:15:46;;;;;;;;;;;;;;;35.80;22.59;100073.69;4473464;31;32638;-90
2021/06/26 09:18:13;;;;;;;;;;;;;;;36.13;22.87;100070.22;4473551;31;33901;-90
2021/06/26 09:20:43;;;;;;;;;;;;;;;35.90;23.90;100068.72;4486713;31;34543;-91
2021/06/26 09:23:17;;;;;;;;;;;;;;;35.92;23.80;100069.34;4473960;31;33404;-91
2021/06/26 09:25:45;;;;;;;;;;;;;;;35.13;23.70;100065.31;4474306;31;32527;-91
2021/06/26 09:28:21;;;;;;;;;;;;;;;35.52;23.96;100069.22;4474403;31;33604;-91
2021/06/26 09:30:49;;;;;;;;;;;;;;;36.17;23.67;100065.22;4460436;31;33833;-92
2021/06/26 09:33:18;;;;;;;;;;;;;;;35.87;23.02;100076.44;4460799;31;33809;-91
2021/06/26 09:36:01;;;;;;;;;;;;;;;36.45;22.49;100065.03;4460638;31;33022;-91
2021/06/26 09:38:31;;;;;;;;;;;;;;;34.07;25.87;100066.97;4473504;31;32960;-91
2021/06/26 09:40:59;;;;;;;;;;;;;;;35.59;24.03;100074.66;4480987;31;35067;-91
2021/06/26 09:43:28;;;;;;;;;;;;;;;36.06;23.00;100062.06;4473777;31;32973;-91
2021/06/26 09:46:03;;;;;;;;;;;;;;;36.42;22.13;100060.84;4486629;31;33074;-91
2021/06/26 09:48:31;;;;;;;;;;;;;;;36.60;21.26;100064.78;4473610;31;34640;-91
2021/06/26 09:50:59;;;;;;;;;;;;;;;36.63;21.19;100060.81;4473577;31;32878;-91
2021/06/26 09:53:26;;;;;;;;;;;;;;;35.80;20.98;100060.13;4460467;31;32896;-91
2021/06/26 09:55:54;;;;;;;;;;;;;;;36.88;20.18;100053.69;4460461;31;32200;-90
2021/06/26 09:58:21;;;;;;;;;;;;;;;36.47;21.43;100054.78;4460578;31;32936;-90
2021/06/26 10:00:49;;;;;;;;;;;;;;;36.77;21.49;100062.47;4473537;31;32931;-91
2021/06/26 10:03:22;;;;;;;;;;;;;;;36.59;21.81;100069.41;4461348;31;33706;-91
2021/06/26 10:05:50;;;;;;;;;;;;;;;37.29;19.89;100057.09;4487026;31;32871;-91
2021/06/26 10:08:18;;;;;;;;;;;;;;;36.94;20.86;100058.28;4473443;31;33055;-92
2021/06/26 10:10:46;;;;;;;;;;;;;;;36.86;20.75;100054.97;4473207;31;32784;-91
2021/06/26 10:13:13;;;;;;;;;;;;;;;36.89;19.82;100052.66;4473533;31;34328;-91
2021/06/26 10:15:41;;;;;;;;;;;;;;;37.34;19.32;100053.78;4473432;31;32983;-91
2021/06/26 10:18:10;;;;;;;;;;;;;;;36.74;19.91;100060.19;4473523;31;33940;-91
2021/06/26 10:20:37;;;;;;;;;;;;;;;36.69;19.81;100052.66;4460441;31;32897;-91
2021/06/26 10:23:06;;;;;;;;;;;;;;;37.64;18.74;100064.06;4500582;31;34631;-90
2021/06/26 10:25:35;;;;;;;;;;;;;;;37.64;18.77;100056.72;4473448;31;33886;-90
2021/06/26 10:28:13;;;;;;;;;;;;;;;36.91;19.29;100058.72;4486248;31;33974;-90
2021/06/26 10:30:41;;;;;;;;;;;;;;;36.87;20.17;100053.91;4460633;31;33896;-91
2021/06/26 10:33:09;;;;;;;;;;;;;;;36.53;20.90;100051.25;4486320;31;33587;-91
2021/06/26 10:35:50;;;;;;;;;;;;;;;37.04;20.16;100052.38;4486303;31;32686;-91
2021/06/26 10:38:18;;;;;;;;;;;;;;;37.80;18.70;100057.31;4459930;31;33097;-91
2021/06/26 10:40:46;;;;;;;;;;;;;;;38.52;18.26;100049.63;4459337;31;33871;-89
2021/06/26 10:43:13;;;;;;;;;;;;;;;37.29;20.08;100051.66;4472440;31;33752;-91
2021/06/26 10:45:41;;;;;;;;;;;;;;;37.92;19.67;100053.66;4473083;31;32069;-91
2021/06/26 10:48:16;;;;;;;;;;;;;;;37.87;18.87;100058.94;4472846;31;33580;-91
2021/06/26 10:50:54;;;;;;;;;;;;;;;38.83;17.49;100058.75;4460338;31;33824;-91
2021/06/26 10:53:22;;;;;;;;;;;;;;;38.99;17.69;100059.22;4486212;31;33603;-91
2021/06/26 10:55:59;;;;;;;;;;;;;;;38.43;18.60;100050.97;4460147;31;31782;-90
2021/06/26 10:58:27;;;;;;;;;;;;;;;38.70;18.48;100056.97;4472922;31;34199;-90
2021/06/26 11:00:55;;;;;;;;;;;;;;;38.79;17.20;100063.00;4473240;31;33355;-91
2021/06/26 11:03:26;;;;;;;;;;;;;;;37.56;18.07;100057.84;4473206;31;33035;-91
2021/06/26 11:05:53;;;;;;;;;;;;;;;37.65;18.62;100058.41;4474358;31;33721;-90
2021/06/26 11:08:21;;;;;;;;;;;;;;;38.84;17.91;100065.88;4473075;31;33018;-90
2021/06/26 11:10:58;;;;;;;;;;;;;;;38.94;18.12;100048.19;4460146;31;33063;-90
2021/06/26 11:13:27;;;;;;;;;;;;;;;39.10;17.94;100047.53;4460100;31;32935;-90
2021/06/26 11:15:55;;;;;;;;;;;;;;;39.37;17.15;100044.50;4472906;31;33728;-91
2021/06/26 11:18:23;;;;;;;;;;;;;;;38.72;17.45;100041.28;4472747;31;33298;-90
2021/06/26 11:20:51;;;;;;;;;;;;;;;39.10;16.90;100044.81;4472751;31;33114;-91
2021/06/26 11:23:18;;;;;;;;;;;;;;;38.99;16.76;100035.53;4472784;31;33063;-90
2021/06/26 11:25:45;;;;;;;;;;;;;;;38.71;17.25;100033.34;4472717;31;32353;-91
2021/06/26 11:28:14;;;;;;;;;;;;;;;36.43;19.71;100032.69;4459766;31;33764;-91
2021/06/26 11:30:43;;;;;;;;;;;;;;;37.87;18.40;100034.47;4472685;31;33966;-91
2021/06/26 11:33:11;;;;;;;;;;;;;;;38.77;17.94;100035.16;4459740;31;33050;-90
2021/06/26 11:35:39;;;;;;;;;;;;;;;38.74;18.20;100039.16;4459524;31;33100;-91
2021/06/26 11:38:14;;;;;;;;;;;;;;;38.83;18.40;100030.72;4472428;31;32761;-90
2021/06/26 11:40:42;;;;;;;;;;;;;;;39.36;17.82;100030.06;4472616;31;33450;-91
2021/06/26 11:43:09;;;;;;;;;;;;;;;39.64;16.81;100027.78;4472165;31;34032;-91
2021/06/26 11:45:38;;;;;;;;;;;;;;;39.40;17.31;100025.81;4459507;31;33252;-91
2021/06/26 11:48:10;;;;;;;;;;;;;;;39.49;17.23;100029.06;4472601;31;33842;-91
2021/06/26 11:50:39;;;;;;;;;;;;;;;39.18;17.58;100024.66;4485242;31;34096;-91
2021/06/26 11:53:11;;;;;;;;;;;;;;;40.03;16.94;100020.06;4472794;31;33138;-90
2021/06/26 11:55:39;;;;;;;;;;;;;;;39.17;17.78;100015.66;4474455;31;32934;-91
2021/06/26 11:58:07;;;;;;;;;;;;;;;40.24;16.98;100007.78;4461336;31;33030;-91
2021/06/26 12:00:34;;;;;;;;;;;;;;;39.93;16.64;100017.94;4474317;31;34768;-90
2021/06/26 12:03:03;;;;;;;;;;;;;;;39.27;16.38;100027.91;4474600;31;34699;-91
2021/06/26 12:05:30;;;;;;;;;;;;;;;39.41;16.75;100010.28;4461081;31;32377;-90
2021/06/26 12:08:02;;;;;;;;;;;;;;;37.91;18.15;100011.22;4474248;31;33834;-90
2021/06/26 12:10:31;;;;;;;;;;;;;;;38.97;17.00;100009.59;4474282;31;34130;-91
2021/06/26 12:12:59;;;;;;;;;;;;;;;39.20;17.07;100007.00;4474623;31;35083;-91
2021/06/26 12:15:27;;;;;;;;;;;;;;;39.73;16.79;100015.50;4474458;31;33213;-91
2021/06/26 12:18:02;;;;;;;;;;;;;;;39.39;17.05;100009.69;4474109;31;33826;-91
2021/06/26 12:20:36;;;;;;;;;;;;;;;39.22;17.55;100020.41;4461369;31;34055;-91
2021/06/26 12:23:05;;;;;;;;;;;;;;;40.05;16.45;100012.50;4473631;31;34273;-91
2021/06/26 12:25:40;;;;;;;;;;;;;;;39.54;16.23;100001.09;4474025;31;33562;-90
2021/06/26 12:28:08;;;;;;;;;;;;;;;40.23;16.02;99995.19;4486963;31;33974;-91
2021/06/26 12:30:37;;;;;;;;;;;;;;;40.42;15.93;99998.59;4474428;31;34868;-91
2021/06/26 12:33:08;;;;;;;;;;;;;;;40.41;16.00;99997.78;4487152;31;34639;-91
2021/06/26 12:35:37;;;;;;;;;;;;;;;40.61;16.07;99993.03;4461562;31;32008;-90
2021/06/26 12:38:05;;;;;;;;;;;;;;;40.98;15.83;99993.59;4487770;31;33904;-91
2021/06/26 12:40:34;;;;;;;;;;;;;;;40.43;15.85;99980.34;4474989;31;33371;-91
2021/06/26 12:43:12;;;;;;;;;;;;;;;39.54;16.61;99996.47;4463754;31;32907;-92
2021/06/26 12:45:43;;;;;;;;;;;;;;;40.70;16.02;99980.66;4466237;31;32262;-91